Time;durP1;ratioP1;P1;durP2;ratioP2;P2;SDS_P1;SDS_P2;PMS_P1;PMS_P2;Temp;Humidity;BMP_temperature;BMP_pressure;BME280_temperature;BME280_humidity;BME280_pressure;Samples;Min_cycle;Max_cycle;Signal;HPM_P1;HPM_P2
2022/06/04 00:00:53;;;;;;;17.13;9.63;;;;;;;20.24;85.85;95307.78;5061041;28;20308;-78
2022/06/04 00:03:19;;;;;;;14.98;10.85;;;;;;;20.05;85.90;95283.38;5061391;28;20175;-78
2022/06/04 00:05:47;;;;;;;18.45;11.70;;;;;;;20.16;85.89;95289.56;5062735;28;20682;-78
2022/06/04 00:08:14;;;;;;;15.27;10.40;;;;;;;20.26;85.87;95303.78;5059464;28;20205;-78
2022/06/04 00:16:15;;;;;;;16.50;10.30;;;;;;;20.23;85.27;95298.19;5058656;28;20660;-78
2022/06/04 00:18:41;;;;;;;16.48;10.50;;;;;;;20.24;85.63;95297.09;5062699;28;20175;-78
2022/06/04 00:21:09;;;;;;;20.10;10.18;;;;;;;20.27;85.03;95296.56;5064114;28;20171;-78
2022/06/04 00:23:34;;;;;;;14.05;8.82;;;;;;;20.11;85.14;95273.50;5063301;28;20625;-78
2022/06/04 00:26:02;;;;;;;14.63;9.35;;;;;;;20.08;85.18;95274.81;5063102;28;20175;-78
2022/06/04 00:28:28;;;;;;;17.88;10.80;;;;;;;20.15;85.46;95287.97;5052395;28;20210;-78
2022/06/04 00:30:56;;;;;;;12.98;9.38;;;;;;;20.02;85.25;95272.38;5065785;28;20225;-78
2022/06/04 00:33:22;;;;;;;14.05;9.82;;;;;;;20.12;85.74;95297.31;5060638;28;20178;-77
2022/06/04 00:35:50;;;;;;;13.25;9.65;;;;;;;20.15;85.46;95298.66;5061046;28;20254;-78
2022/06/04 00:38:18;;;;;;;18.08;9.40;;;;;;;20.10;85.74;95294.09;5056550;28;20186;-77
2022/06/04 00:40:59;;;;;;;16.75;10.52;;;;;;;19.95;85.10;95256.59;5061596;28;20170;-77
2022/06/04 00:43:24;;;;;;;15.10;9.93;;;;;;;20.13;85.20;95280.22;5060802;28;20173;-78
2022/06/04 00:46:34;;;;;;;17.98;10.23;;;;;;;20.08;85.32;95279.34;5064315;28;20178;-78
2022/06/04 00:49:00;;;;;;;15.88;10.02;;;;;;;20.10;85.22;95275.38;5058753;28;20902;-77
2022/06/04 00:51:27;;;;;;;19.08;10.63;;;;;;;20.07;85.31;95269.72;5062716;28;20202;-77
2022/06/04 00:53:56;;;;;;;16.65;9.80;;;;;;;20.04;85.49;95275.59;5063021;28;20185;-78
2022/06/04 00:56:43;;;;;;;19.45;10.43;;;;;;;19.94;85.70;95253.09;5062059;28;20175;-77
2022/06/04 00:59:24;;;;;;;16.08;10.45;;;;;;;19.77;85.99;95252.47;5060752;28;20660;-78
2022/06/04 01:01:50;;;;;;;22.13;10.65;;;;;;;19.85;86.12;95277.91;5060422;28;20175;-77
2022/06/04 01:04:47;;;;;;;16.90;9.23;;;;;;;19.87;86.04;95271.25;5060552;28;20174;-77
2022/06/04 01:07:21;;;;;;;17.27;9.30;;;;;;;19.84;85.70;95257.59;5060490;28;20171;-77
2022/06/04 01:09:54;;;;;;;21.67;9.45;;;;;;;19.79;86.33;95252.22;5056161;28;20276;-77
2022/06/04 01:12:45;;;;;;;15.98;9.75;;;;;;;19.72;86.62;95262.34;5065030;28;20676;-77
2022/06/04 01:15:31;;;;;;;19.40;9.65;;;;;;;19.66;87.00;95263.34;5058949;28;20183;-78
2022/06/04 01:18:35;;;;;;;14.30;9.88;;;;;;;19.62;87.05;95264.94;5061878;28;20171;-77
2022/06/04 01:21:16;;;;;;;14.68;9.77;;;;;;;19.61;86.92;95266.81;5012664;28;20176;-78
2022/06/04 01:23:55;;;;;;;16.33;10.02;;;;;;;19.57;86.84;95260.34;5025308;28;20263;-77
2022/06/04 01:26:45;;;;;;;20.10;9.93;;;;;;;19.56;86.94;95253.41;5044097;28;20183;-77
2022/06/04 01:29:38;;;;;;;20.17;9.93;;;;;;;19.56;87.22;95248.84;5064255;28;20258;-77
2022/06/04 01:32:27;;;;;;;15.15;8.57;;;;;;;19.53;87.09;95237.91;5058084;28;20189;-77
2022/06/04 01:35:01;;;;;;;16.65;10.13;;;;;;;19.51;87.25;95243.50;5055721;28;20181;-77
2022/06/04 01:37:31;;;;;;;18.63;9.75;;;;;;;19.35;87.13;95220.38;5056266;28;20214;-77
2022/06/04 01:42:48;;;;;;;14.27;10.20;;;;;;;19.42;86.97;95225.50;5062664;28;20621;-77
2022/06/04 01:45:18;;;;;;;14.63;9.75;;;;;;;19.52;86.46;95237.09;5062496;28;20245;-77
2022/06/04 01:47:48;;;;;;;12.20;8.73;;;;;;;19.38;86.35;95227.06;5047581;28;20167;-77
2022/06/04 01:50:19;;;;;;;15.65;10.68;;;;;;;19.19;86.73;95206.13;5051162;28;20222;-77
2022/06/04 01:52:46;;;;;;;16.35;9.93;;;;;;;19.46;86.77;95247.97;5056886;28;20179;-77
2022/06/04 01:55:31;;;;;;;21.92;10.95;;;;;;;19.46;86.55;95250.66;5062801;28;20232;-77
2022/06/04 01:58:05;;;;;;;17.40;10.52;;;;;;;19.29;86.44;95232.06;5055551;28;20171;-77
2022/06/04 02:00:38;;;;;;;14.70;9.63;;;;;;;19.34;86.69;95263.34;5072711;28;20206;-77
2022/06/04 02:03:29;;;;;;;14.35;10.52;;;;;;;19.18;86.53;95257.91;5063976;28;20196;-77
2022/06/04 02:06:00;;;;;;;14.00;10.07;;;;;;;19.29;86.62;95287.31;5059906;28;20186;-77
2022/06/04 02:08:34;;;;;;;19.33;9.60;;;;;;;19.26;86.86;95290.53;5062448;28;20695;-78
2022/06/04 02:11:09;;;;;;;18.05;9.50;;;;;;;19.19;87.45;95275.53;5063618;28;20198;-79
2022/06/04 02:13:35;;;;;;;15.63;10.02;;;;;;;19.21;88.01;95286.75;5050838;28;20200;-78
2022/06/04 02:16:13;;;;;;;16.27;10.02;;;;;;;19.12;88.85;95274.09;5067840;28;20178;-78
2022/06/04 02:18:38;;;;;;;15.73;9.60;;;;;;;19.23;89.02;95302.50;5063444;28;20179;-78
2022/06/04 02:21:04;;;;;;;13.13;9.05;;;;;;;19.02;88.86;95272.19;5063267;28;20663;-78
2022/06/04 02:23:30;;;;;;;16.15;10.10;;;;;;;18.92;89.07;95266.75;5067591;28;20687;-79
2022/06/04 02:25:57;;;;;;;24.45;10.82;;;;;;;19.00;89.40;95282.28;5058906;28;20247;-78
2022/06/04 02:28:23;;;;;;;16.55;9.70;;;;;;;19.20;89.17;95313.69;5063300;28;20667;-79
2022/06/04 02:31:05;;;;;;;16.15;11.23;;;;;;;19.20;88.99;95313.69;5065690;28;20577;-78
2022/06/04 02:33:41;;;;;;;16.25;11.32;;;;;;;19.06;88.24;95291.94;5073726;28;20197;-78
2022/06/04 02:36:14;;;;;;;17.42;11.18;;;;;;;19.12;88.79;95303.47;5065191;28;20178;-78
2022/06/04 02:38:55;;;;;;;17.80;11.23;;;;;;;18.98;88.40;95289.72;5064576;28;20166;-78
2022/06/04 02:41:27;;;;;;;13.48;10.82;;;;;;;18.89;88.48;95269.09;5067443;28;20175;-79
2022/06/04 02:44:02;;;;;;;17.45;11.20;;;;;;;18.70;88.72;95229.44;5071226;28;20210;-78
2022/06/04 02:46:41;;;;;;;16.05;10.68;;;;;;;18.99;88.75;95302.03;5074949;28;20169;-79
2022/06/04 02:49:20;;;;;;;17.83;10.40;;;;;;;18.77;89.36;95272.72;5074121;28;20252;-78
2022/06/04 02:51:50;;;;;;;15.13;10.50;;;;;;;18.93;89.09;95286.22;5074106;28;20174;-78
2022/06/04 02:54:40;;;;;;;16.70;10.38;;;;;;;18.95;89.10;95295.56;5074000;28;20261;-78
2022/06/04 02:57:11;;;;;;;16.85;10.07;;;;;;;18.98;89.08;95291.59;5072262;28;20601;-79
2022/06/04 02:59:38;;;;;;;14.45;10.50;;;;;;;18.85;88.63;95264.25;5061443;28;20175;-79
2022/06/04 03:02:06;;;;;;;15.60;9.80;;;;;;;19.07;88.14;95288.22;5062542;28;20656;-78
2022/06/04 03:04:44;;;;;;;17.45;10.68;;;;;;;18.89;88.54;95285.09;5062037;28;20592;-79
2022/06/04 03:07:11;;;;;;;19.58;11.02;;;;;;;18.90;89.14;95286.72;5063990;28;20260;-78
2022/06/04 03:09:38;;;;;;;18.50;10.73;;;;;;;18.96;89.19;95280.38;5062333;28;20218;-79
2022/06/04 03:12:04;;;;;;;13.65;10.07;;;;;;;18.91;88.48;95267.78;5073721;28;20159;-78
2022/06/04 03:14:30;;;;;;;14.50;8.70;;;;;;;18.89;88.57;95242.41;5073937;28;20165;-79
2022/06/04 03:16:55;;;;;;;12.23;9.15;;;;;;;18.95;87.98;95257.41;5073565;28;20178;-79
2022/06/04 03:19:21;;;;;;;21.30;14.77;;;;;;;18.99;88.00;95255.84;5073840;28;20162;-78
2022/06/04 03:21:47;;;;;;;18.13;11.85;;;;;;;19.09;87.66;95261.28;5063344;28;20175;-79
2022/06/04 03:24:13;;;;;;;11.88;9.48;;;;;;;19.14;87.47;95272.00;5066043;28;20171;-79
2022/06/04 03:26:39;;;;;;;15.13;9.43;;;;;;;18.81;88.07;95228.47;5059111;28;20178;-79
2022/06/04 03:29:05;;;;;;;18.30;9.20;;;;;;;18.98;87.83;95248.91;5059596;28;20178;-79
2022/06/04 03:31:31;;;;;;;15.93;9.48;;;;;;;19.28;87.37;95267.88;5053434;28;20582;-79
2022/06/04 03:33:56;;;;;;;18.92;10.75;;;;;;;19.39;87.33;95264.19;5053518;28;20163;-79
2022/06/04 03:36:25;;;;;;;17.10;9.10;;;;;;;19.12;86.08;95212.72;5053527;28;20169;-79
2022/06/04 03:38:51;;;;;;;12.70;7.93;;;;;;;19.62;85.93;95278.28;5053103;28;20174;-79
2022/06/04 03:41:17;;;;;;;14.20;8.60;;;;;;;19.74;85.66;95271.69;5053119;28;20155;-79
2022/06/04 03:43:46;;;;;;;17.88;8.07;;;;;;;19.80;85.30;95256.50;5055816;28;20186;-79
2022/06/04 03:46:13;;;;;;;13.75;7.78;;;;;;;19.87;85.47;95249.06;5057095;28;20182;-79
2022/06/04 03:48:39;;;;;;;14.57;8.38;;;;;;;20.15;84.70;95266.59;5063356;28;20569;-77
2022/06/04 03:51:04;;;;;;;14.40;8.60;;;;;;;20.03;84.26;95226.69;5061728;28;20234;-77
2022/06/04 03:53:30;;;;;;;14.00;8.05;;;;;;;20.45;83.81;95272.09;5063250;28;20620;-77
2022/06/04 03:55:55;;;;;;;18.98;8.48;;;;;;;20.60;82.64;95279.34;5054341;28;20241;-77
2022/06/04 03:58:21;;;;;;;15.55;8.27;;;;;;;20.71;81.66;95276.44;5061351;28;20187;-77
2022/06/04 04:00:46;;;;;;;17.52;9.20;;;;;;;20.84;81.76;95280.50;5059548;28;20170;-77
2022/06/04 04:03:15;;;;;;;24.98;14.60;;;;;;;20.95;80.88;95286.66;5059560;28;20178;-77
2022/06/04 04:05:50;;;;;;;21.27;11.25;;;;;;;21.13;80.52;95290.72;5063125;28;20639;-77
2022/06/04 04:08:17;;;;;;;19.70;9.13;;;;;;;21.32;79.95;95303.34;5061401;28;20170;-77
2022/06/04 04:10:44;;;;;;;25.00;16.90;;;;;;;21.42;79.75;95297.22;5065734;28;20696;-77
2022/06/04 04:13:12;;;;;;;20.80;10.35;;;;;;;21.68;79.00;95303.38;5061716;28;20206;-77
2022/06/04 04:15:38;;;;;;;16.95;11.18;;;;;;;21.91;78.06;95312.72;5057083;28;20622;-77
2022/06/04 04:18:05;;;;;;;16.80;9.55;;;;;;;22.18;77.66;95313.25;5056699;28;20261;-77
2022/06/04 04:20:34;;;;;;;22.05;10.85;;;;;;;22.41;76.88;95309.13;5060740;28;20174;-77
2022/06/04 04:23:00;;;;;;;20.67;11.35;;;;;;;22.58;75.64;95312.28;5061617;28;20171;-77
2022/06/04 04:25:28;;;;;;;12.50;8.85;;;;;;;22.77;76.15;95315.19;5061989;28;20212;-77
2022/06/04 04:27:53;;;;;;;17.08;10.23;;;;;;;22.90;75.84;95310.06;5054200;28;20179;-77
2022/06/04 04:30:23;;;;;;;26.15;13.35;;;;;;;23.11;76.03;95317.97;5061104;28;20191;-77
2022/06/04 04:32:50;;;;;;;22.33;14.50;;;;;;;23.32;75.29;95328.34;5053588;28;20274;-78
2022/06/04 04:35:19;;;;;;;16.83;10.52;;;;;;;23.52;74.63;95321.25;5062426;28;20187;-77
2022/06/04 04:37:44;;;;;;;18.98;11.00;;;;;;;23.69;73.43;95305.50;5063044;28;20194;-77
2022/06/04 04:40:12;;;;;;;13.90;10.23;;;;;;;24.04;72.54;95329.38;5062668;28;20656;-77
2022/06/04 04:42:37;;;;;;;14.85;9.75;;;;;;;24.31;72.39;95339.63;5060804;28;20174;-78
2022/06/04 04:45:07;;;;;;;15.80;10.40;;;;;;;24.51;70.97;95341.31;5066069;28;20596;-78
2022/06/04 04:47:37;;;;;;;12.27;8.98;;;;;;;24.72;70.19;95344.59;5063254;28;20174;-77
2022/06/04 04:50:05;;;;;;;26.35;10.75;;;;;;;24.86;68.72;95350.06;5049702;28;20215;-78
2022/06/04 04:52:30;;;;;;;18.13;12.38;;;;;;;24.78;67.67;95349.63;5058665;28;20664;-78
2022/06/04 04:54:56;;;;;;;51.35;21.45;;;;;;;24.81;68.08;95346.38;5061815;28;20178;-78
2022/06/04 04:57:21;;;;;;;20.98;11.70;;;;;;;24.82;67.88;95329.09;5062488;28;20183;-77
2022/06/04 04:59:47;;;;;;;16.75;9.30;;;;;;;25.14;67.04;95357.28;5060612;28;20175;-77
2022/06/04 05:02:12;;;;;;;18.10;10.55;;;;;;;25.23;66.13;95343.97;5056859;28;20210;-77
2022/06/04 05:04:38;;;;;;;20.48;10.77;;;;;;;25.51;66.56;95351.88;5063148;28;20635;-77
2022/06/04 05:07:04;;;;;;;18.63;10.50;;;;;;;25.77;65.72;95355.03;5052194;28;20183;-78
2022/06/04 05:09:30;;;;;;;13.25;8.07;;;;;;;25.94;65.51;95362.63;5054624;28;20270;-78
2022/06/04 05:11:56;;;;;;;14.15;9.55;;;;;;;25.98;64.26;95362.81;5062887;28;20269;-78
2022/06/04 05:14:21;;;;;;;16.10;9.20;;;;;;;26.09;63.92;95366.94;5062796;28;20660;-78
2022/06/04 05:16:47;;;;;;;19.40;12.60;;;;;;;26.21;63.86;95368.06;5062733;28;20189;-78
2022/06/04 05:19:13;;;;;;;28.40;17.05;;;;;;;26.35;63.16;95375.44;5062749;28;20245;-77
2022/06/04 05:21:41;;;;;;;10.80;8.85;;;;;;;26.44;62.40;95366.34;5062797;28;20583;-78
2022/06/04 05:24:07;;;;;;;15.13;9.45;;;;;;;26.42;63.25;95367.75;5062675;28;20171;-78
2022/06/04 05:26:33;;;;;;;16.35;10.55;;;;;;;26.14;61.29;95361.44;5063552;28;20182;-79
2022/06/04 05:28:59;;;;;;;14.52;9.25;;;;;;;26.06;63.47;95364.81;5058323;28;20277;-79
2022/06/04 05:31:24;;;;;;;13.43;9.88;;;;;;;25.98;63.14;95339.31;5066143;28;20670;-79
2022/06/04 05:33:50;;;;;;;18.55;9.20;;;;;;;26.07;63.92;95340.25;5067127;28;20163;-80
2022/06/04 05:36:16;;;;;;;13.93;9.65;;;;;;;26.19;63.26;95355.97;5060315;28;20179;-79
2022/06/04 05:38:42;;;;;;;12.98;9.48;;;;;;;26.25;62.67;95354.78;5055421;28;20606;-80
2022/06/04 05:41:09;;;;;;;23.35;12.52;;;;;;;26.33;62.55;95345.22;5055949;28;20159;-80
2022/06/04 05:43:37;;;;;;;17.83;11.45;;;;;;;26.37;62.48;95354.34;5062814;28;20171;-80
2022/06/04 05:46:09;;;;;;;18.70;12.05;;;;;;;26.60;63.38;95383.06;5061953;28;20171;-80
2022/06/04 05:48:40;;;;;;;23.67;15.23;;;;;;;26.46;61.62;95364.16;5066791;28;20239;-79
2022/06/04 05:51:08;;;;;;;14.93;10.15;;;;;;;26.72;61.69;95372.59;5063664;28;20219;-80
2022/06/04 05:53:33;;;;;;;18.95;10.02;;;;;;;26.83;61.27;95368.56;5062443;28;20260;-79
2022/06/04 05:55:59;;;;;;;14.88;9.63;;;;;;;27.05;61.63;95384.13;5065554;28;20616;-80
2022/06/04 05:58:24;;;;;;;13.77;9.40;;;;;;;27.14;61.22;95379.59;5063309;28;20178;-81
2022/06/04 06:00:57;;;;;;;13.20;8.63;;;;;;;27.27;60.68;95373.38;5061889;28;20174;-80
2022/06/04 06:03:22;;;;;;;17.17;10.82;;;;;;;27.40;59.04;95385.28;5067160;28;20171;-80
2022/06/04 06:05:47;;;;;;;21.92;9.55;;;;;;;27.41;60.86;95381.47;5074976;28;20166;-80
2022/06/04 06:08:13;;;;;;;21.02;13.57;;;;;;;27.29;60.33;95360.34;5074861;28;20532;-81
2022/06/04 06:10:44;;;;;;;14.77;9.38;;;;;;;27.56;60.74;95383.06;5075057;28;20324;-80
2022/06/04 06:13:10;;;;;;;17.13;11.90;;;;;;;27.59;60.99;95350.00;5073551;28;20635;-81
2022/06/04 06:15:36;;;;;;;15.32;8.65;;;;;;;27.88;59.55;95363.91;5070552;28;20624;-81
2022/06/04 06:18:04;;;;;;;13.05;9.40;;;;;;;27.92;57.27;95381.13;5059625;28;20170;-81
2022/06/04 06:20:29;;;;;;;17.83;10.73;;;;;;;27.15;59.37;95366.91;5061203;28;20301;-81
2022/06/04 06:22:55;;;;;;;15.02;10.13;;;;;;;26.57;60.15;95335.03;5065068;28;20240;-80
2022/06/04 06:25:20;;;;;;;14.27;9.82;;;;;;;26.56;60.70;95363.94;5065219;28;20182;-81
2022/06/04 06:27:47;;;;;;;15.65;10.10;;;;;;;26.52;62.08;95362.97;5065133;28;20171;-81
2022/06/04 06:30:13;;;;;;;17.02;9.75;;;;;;;26.38;61.59;95320.84;5062335;28;20285;-81
2022/06/04 06:32:40;;;;;;;16.02;8.45;;;;;;;26.73;60.77;95352.53;5067544;28;20995;-81
2022/06/04 06:35:06;;;;;;;16.60;10.07;;;;;;;26.53;61.23;95337.56;5074403;28;20162;-81
2022/06/04 06:37:32;;;;;;;16.58;10.02;;;;;;;26.85;62.07;95355.56;5074855;28;20163;-81
2022/06/04 06:39:57;;;;;;;18.65;8.50;;;;;;;27.23;62.99;95355.34;5064504;28;20175;-81
2022/06/04 06:42:23;;;;;;;17.02;8.95;;;;;;;27.55;58.64;95347.09;5060747;28;20179;-81
2022/06/04 06:44:48;;;;;;;12.73;7.95;;;;;;;27.95;58.18;95348.00;5063308;28;20221;-80
2022/06/04 06:47:14;;;;;;;13.88;7.97;;;;;;;28.20;57.54;95332.25;5058517;28;20175;-81
2022/06/04 06:49:39;;;;;;;16.70;7.65;;;;;;;28.67;57.71;95336.16;5054005;28;20226;-80
2022/06/04 06:52:06;;;;;;;18.10;10.98;;;;;;;28.90;54.74;95314.09;5059867;28;20669;-81
2022/06/04 06:54:35;;;;;;;17.92;8.77;;;;;;;29.25;54.64;95331.22;5058072;28;20178;-81
2022/06/04 06:57:06;;;;;;;11.95;7.65;;;;;;;29.44;53.61;95330.97;5064860;28;20605;-81
2022/06/04 06:59:32;;;;;;;17.52;8.52;;;;;;;29.20;53.22;95325.16;5063444;28;20174;-81
2022/06/04 07:01:58;;;;;;;13.52;9.13;;;;;;;28.51;54.88;95311.41;5060901;28;20560;-81
2022/06/04 07:04:27;;;;;;;15.55;9.27;;;;;;;28.38;54.93;95315.00;5062611;28;20214;-81
2022/06/04 07:06:57;;;;;;;9.45;7.97;;;;;;;28.48;55.47;95309.31;5058792;28;20645;-81
2022/06/04 07:09:27;;;;;;;16.45;7.95;;;;;;;28.99;54.00;95313.31;5032556;28;20258;-80
2022/06/04 07:11:53;;;;;;;22.15;9.88;;;;;;;29.09;52.58;95294.03;5033658;28;20170;-81
2022/06/04 07:14:20;;;;;;;18.23;9.27;;;;;;;29.25;52.83;95306.81;5032325;28;20215;-81
2022/06/04 07:16:46;;;;;;;14.25;8.15;;;;;;;29.43;54.43;95313.09;5032294;28;20176;-81
2022/06/04 07:19:13;;;;;;;10.40;7.30;;;;;;;29.62;50.83;95315.47;5032226;28;20686;-81
2022/06/04 07:21:40;;;;;;;13.00;7.55;;;;;;;29.50;51.51;95299.81;5033837;28;20163;-80
2022/06/04 07:24:06;;;;;;;18.80;7.07;;;;;;;29.78;52.24;95289.44;5033548;28;21033;-81
2022/06/04 07:26:32;;;;;;;10.93;7.95;;;;;;;30.15;49.35;95306.19;5047060;28;20261;-81
2022/06/04 07:28:57;;;;;;;10.77;6.93;;;;;;;30.39;50.15;95293.63;5063922;28;20189;-81
2022/06/04 07:31:23;;;;;;;11.55;7.43;;;;;;;30.72;50.43;95301.97;5064964;28;20672;-81
2022/06/04 07:33:52;;;;;;;10.07;7.65;;;;;;;31.18;48.14;95294.88;5061862;28;20642;-81
2022/06/04 07:36:24;;;;;;;16.40;7.43;;;;;;;31.32;47.06;95268.19;5033242;28;20249;-81
2022/06/04 07:38:51;;;;;;;13.07;6.22;;;;;;;31.34;46.82;95286.91;5033845;28;20152;-81
2022/06/04 07:41:28;;;;;;;9.00;6.57;;;;;;;31.11;47.35;95284.53;5033218;28;20206;-81
2022/06/04 07:43:54;;;;;;;11.70;6.80;;;;;;;30.66;48.94;95276.13;5033720;28;20254;-82
2022/06/04 07:46:21;;;;;;;14.00;6.60;;;;;;;30.22;49.02;95271.16;5034595;28;20206;-81
2022/06/04 07:48:47;;;;;;;11.25;5.65;;;;;;;29.98;50.46;95261.66;5060642;28;20197;-81
2022/06/04 07:51:14;;;;;;;9.85;6.65;;;;;;;29.68;49.58;95235.47;5068230;28;20301;-81
2022/06/04 07:53:39;;;;;;;22.65;13.38;;;;;;;29.61;50.74;95230.53;5053412;28;20209;-81
2022/06/04 07:56:11;;;;;;;19.17;6.22;;;;;;;29.77;53.15;95268.03;5047064;28;20264;-80
2022/06/04 07:58:37;;;;;;;24.92;6.40;;;;;;;29.77;50.87;95273.47;5055105;28;20271;-80
2022/06/04 08:01:03;;;;;;;14.90;5.28;;;;;;;29.37;50.11;95254.66;5048641;28;20179;-80
2022/06/04 08:03:34;;;;;;;9.55;5.97;;;;;;;29.28;52.47;95264.69;5062746;28;20178;-80
2022/06/04 08:06:01;;;;;;;9.00;6.22;;;;;;;29.03;52.30;95241.06;5043908;28;20193;-80
2022/06/04 08:08:30;;;;;;;9.95;6.22;;;;;;;29.14;52.55;95256.72;5058095;28;20179;-80
2022/06/04 08:10:57;;;;;;;9.52;5.20;;;;;;;28.93;52.40;95246.78;5058040;28;20199;-80
2022/06/04 08:13:26;;;;;;;13.48;6.55;;;;;;;28.74;51.83;95247.84;5057327;28;20183;-79
2022/06/04 08:15:56;;;;;;;11.02;6.05;;;;;;;28.53;52.63;95253.06;5046684;28;20624;-80
2022/06/04 08:18:21;;;;;;;10.07;6.25;;;;;;;28.43;53.25;95255.25;5044466;28;20707;-80
2022/06/04 08:20:47;;;;;;;10.95;6.57;;;;;;;27.99;53.88;95197.41;5053316;28;20254;-82
2022/06/04 08:23:14;;;;;;;8.63;5.22;;;;;;;28.32;53.35;95243.91;5052015;28;20258;-80
2022/06/04 08:25:46;;;;;;;11.30;5.07;;;;;;;28.23;53.98;95232.25;5046800;28;20186;-80
2022/06/04 08:28:14;;;;;;;7.72;4.63;;;;;;;28.42;53.28;95234.69;5047366;28;20175;-80
2022/06/04 08:30:41;;;;;;;12.38;5.10;;;;;;;28.27;51.93;95216.19;5036939;28;20199;-83
2022/06/04 08:33:06;;;;;;;10.10;5.07;;;;;;;28.35;53.24;95234.38;5040022;28;20439;-77
2022/06/04 08:35:31;;;;;;;9.18;5.07;;;;;;;28.26;52.73;95225.41;5049909;28;20653;-77
2022/06/04 08:37:57;;;;;;;9.85;4.97;;;;;;;28.24;51.58;95233.84;5046920;28;20714;-79
2022/06/04 08:40:50;;;;;;;8.77;4.57;;;;;;;28.11;53.12;95224.66;5056260;28;21002;-79
2022/06/04 08:43:55;;;;;;;8.75;4.65;;;;;;;28.03;50.44;95217.31;5044923;28;20240;-79
2022/06/04 08:46:29;;;;;;;11.88;4.40;;;;;;;27.85;51.81;95207.50;5048213;28;20178;-79
2022/06/04 08:48:59;;;;;;;7.00;4.32;;;;;;;27.82;52.24;95202.72;5045803;28;20202;-79
2022/06/04 08:51:28;;;;;;;10.60;4.10;;;;;;;27.83;51.73;95212.44;5037440;28;20207;-80
2022/06/04 08:57:32;;;;;;;16.08;4.40;;;;;;;27.59;51.29;95193.06;5052867;28;20662;-80
2022/06/04 08:59:49;;;;;;;7.57;4.05;;;;;;;27.49;51.50;95223.03;5037046;28;20182;-84
2022/06/04 09:02:22;;;;;;;9.45;3.80;;;;;;;27.22;48.80;95170.69;5042320;28;20192;-83
2022/06/04 09:05:15;;;;;;;8.98;4.18;;;;;;;27.54;49.53;95231.06;5052038;28;20167;-82
2022/06/04 09:07:47;;;;;;;8.52;3.88;;;;;;;27.38;49.51;95211.66;5051457;28;20170;-86
2022/06/04 09:10:34;;;;;;;7.45;3.90;;;;;;;27.54;50.38;95217.53;5054177;28;20209;-82
2022/06/04 09:13:10;;;;;;;6.13;4.20;;;;;;;27.61;51.38;95198.94;5038201;28;20182;-81
2022/06/04 09:15:52;;;;;;;6.68;4.05;;;;;;;27.47;50.95;95166.53;5051463;28;20179;-80
2022/06/04 09:18:24;;;;;;;5.55;3.60;;;;;;;27.79;49.93;95209.56;5041706;28;20706;-80
2022/06/04 09:20:55;;;;;;;6.68;3.78;;;;;;;27.58;48.71;95162.50;5043706;28;20193;-81
2022/06/04 09:23:35;;;;;;;6.32;3.53;;;;;;;27.91;46.65;95225.22;5045286;28;20175;-82
2022/06/04 09:26:07;;;;;;;7.50;3.55;;;;;;;27.97;47.40;95228.59;5054719;28;20183;-82
2022/06/04 09:28:55;;;;;;;8.32;3.95;;;;;;;27.91;47.67;95208.19;5053962;28;20175;-82
2022/06/04 09:31:45;;;;;;;8.25;3.78;;;;;;;28.13;50.33;95229.78;5051510;28;20205;-84
2022/06/04 09:34:19;;;;;;;5.10;3.40;;;;;;;28.24;48.05;95233.84;5045167;28;20195;-84
2022/06/04 09:36:47;;;;;;;5.90;3.70;;;;;;;28.34;51.17;95232.75;5049840;28;20167;-83
2022/06/04 09:39:25;;;;;;;8.32;3.95;;;;;;;28.58;52.04;95226.94;5048448;28;20857;-83
2022/06/04 09:41:51;;;;;;;7.47;3.45;;;;;;;28.74;48.62;95231.59;5048987;28;20172;-81
2022/06/04 09:44:17;;;;;;;4.75;3.47;;;;;;;28.82;49.63;95233.53;5059191;28;20167;-82
2022/06/04 09:46:44;;;;;;;6.25;3.95;;;;;;;28.91;50.23;95225.41;5050543;28;20174;-87
2022/06/04 09:49:35;;;;;;;6.93;3.58;;;;;;;29.06;47.47;95232.31;5058413;28;20183;-84
2022/06/04 09:52:19;;;;;;;5.10;4.15;;;;;;;28.99;45.64;95218.41;5056482;28;20243;-81
2022/06/04 09:54:55;;;;;;;7.05;4.10;;;;;;;28.97;49.08;95209.81;5049703;28;20179;-81
2022/06/04 09:57:37;;;;;;;8.23;3.60;;;;;;;29.09;47.19;95226.22;5050456;28;20287;-82
2022/06/04 10:00:18;;;;;;;6.32;3.65;;;;;;;28.93;46.44;95209.63;5052636;28;20187;-82
2022/06/04 10:02:58;;;;;;;8.65;3.78;;;;;;;29.03;48.34;95219.38;5055993;28;20202;-83
2022/06/04 10:05:28;;;;;;;8.70;3.38;;;;;;;29.09;49.73;95220.81;5049738;28;20183;-84
2022/06/04 10:07:55;;;;;;;12.18;4.93;;;;;;;29.21;50.18;95213.63;5049120;28;20980;-85
2022/06/04 10:10:37;;;;;;;10.65;4.18;;;;;;;29.28;51.01;95196.88;5056539;28;20191;-84
2022/06/04 10:15:56;;;;;;;8.82;6.30;;;;;;;29.44;49.95;95197.19;5064497;28;20287;-83
2022/06/04 10:18:22;;;;;;;8.88;4.40;;;;;;;29.43;48.87;95204.53;5060727;28;20651;-82
2022/06/04 10:20:57;;;;;;;7.03;4.32;;;;;;;29.55;50.79;95212.84;5054100;28;20179;-81
2022/06/04 10:23:24;;;;;;;11.27;4.57;;;;;;;29.73;50.57;95210.88;5061543;28;20171;-81
2022/06/04 10:26:27;;;;;;;11.02;4.47;;;;;;;29.81;50.00;95203.84;5061603;28;20655;-82
2022/06/04 10:29:33;;;;;;;14.02;4.55;;;;;;;29.61;50.18;95156.44;5044618;28;20228;-81
2022/06/04 10:32:25;;;;;;;6.72;4.30;;;;;;;30.02;49.45;95193.88;5061952;28;20209;-81
2022/06/04 10:35:22;;;;;;;12.70;4.53;;;;;;;30.09;51.06;95190.69;5058530;28;20211;-86
2022/06/04 10:38:26;;;;;;;10.70;5.38;;;;;;;30.12;49.89;95185.38;5057844;28;20195;-83
2022/06/04 10:41:13;;;;;;;8.80;4.20;;;;;;;30.11;50.77;95164.75;5056526;28;20175;-82
2022/06/04 10:44:06;;;;;;;14.20;5.47;;;;;;;30.47;50.20;95185.19;5063847;28;20173;-82
2022/06/04 10:46:39;;;;;;;9.93;4.65;;;;;;;30.63;49.94;95183.53;5061564;28;20177;-82
2022/06/04 10:49:41;;;;;;;10.43;4.63;;;;;;;30.72;47.81;95179.63;5060372;28;20175;-82
2022/06/04 10:52:23;;;;;;;11.18;5.68;;;;;;;30.71;47.07;95171.78;5058120;28;20186;-83
2022/06/04 10:55:12;;;;;;;7.60;4.82;;;;;;;30.62;47.46;95177.28;5060930;28;20182;-82
2022/06/04 10:57:51;;;;;;;9.85;5.30;;;;;;;30.38;49.63;95141.75;5063940;28;20311;-81
2022/06/04 11:00:22;;;;;;;8.20;5.32;;;;;;;30.45;49.75;95165.69;5058043;28;20588;-82
2022/06/04 11:02:57;;;;;;;7.50;4.63;;;;;;;30.37;48.96;95165.41;5065722;28;20174;-82
2022/06/04 11:05:38;;;;;;;7.78;4.55;;;;;;;30.00;49.48;95136.38;5071412;28;20706;-82
2022/06/04 11:08:14;;;;;;;14.70;5.05;;;;;;;30.26;51.07;95158.00;5055003;28;20305;-82
2022/06/04 11:10:47;;;;;;;11.82;5.75;;;;;;;30.18;49.32;95145.25;5064177;28;20186;-81
2022/06/04 11:13:37;;;;;;;10.73;5.47;;;;;;;30.12;48.04;95144.63;5065854;28;20163;-81
2022/06/04 11:16:25;;;;;;;10.15;5.35;;;;;;;29.89;50.21;95121.53;5073747;28;20159;-82
2022/06/04 11:19:12;;;;;;;11.43;5.95;;;;;;;30.09;49.58;95144.50;5072389;28;20201;-82
2022/06/04 11:21:48;;;;;;;6.88;4.78;;;;;;;30.15;48.33;95151.31;5073506;28;20167;-81
2022/06/04 11:24:19;;;;;;;6.90;4.93;;;;;;;29.90;48.21;95094.06;5073678;28;20150;-81
2022/06/04 11:26:52;;;;;;;9.02;4.72;;;;;;;30.28;49.26;95142.94;5073461;28;20154;-81
2022/06/04 11:29:19;;;;;;;8.95;5.82;;;;;;;30.33;49.73;95139.25;5073869;28;20241;-82
2022/06/04 11:32:08;;;;;;;9.45;5.18;;;;;;;30.45;48.42;95146.66;5073760;28;20240;-82
2022/06/04 11:34:33;;;;;;;11.57;4.90;;;;;;;30.49;48.26;95137.53;5073820;28;20150;-82
2022/06/04 11:37:19;;;;;;;7.38;5.35;;;;;;;30.64;49.25;95145.13;5072904;28;20154;-82
2022/06/04 11:39:58;;;;;;;9.23;4.85;;;;;;;30.75;48.09;95140.91;5058190;28;20178;-82
2022/06/04 11:42:51;;;;;;;7.38;5.43;;;;;;;30.65;46.70;95116.81;5048072;28;20178;-82
2022/06/04 11:45:45;;;;;;;9.13;5.40;;;;;;;30.70;47.67;95134.88;5053744;28;20634;-82
2022/06/04 11:48:17;;;;;;;9.02;5.38;;;;;;;30.33;48.00;95115.59;5046912;28;20174;-82
2022/06/04 11:50:45;;;;;;;12.88;6.75;;;;;;;30.44;49.10;95145.09;5064149;28;20869;-82
2022/06/04 11:53:32;;;;;;;10.85;5.80;;;;;;;30.24;47.40;95136.56;5061608;28;20197;-82
2022/06/04 11:56:35;;;;;;;9.10;5.68;;;;;;;30.09;48.64;95131.72;5061480;28;20194;-82
2022/06/04 11:59:35;;;;;;;11.60;6.03;;;;;;;29.96;50.47;95135.44;5046813;28;20187;-82
2022/06/04 12:02:11;;;;;;;11.40;6.00;;;;;;;29.04;52.36;94991.28;5061181;28;20165;-82